Startpagina
METAR-TAF:

METAR-TAF

Vliegvelden :

Luchthaven Garoua Internationaal

Garoua, Kameroen

breedte: 09-20N, lengte: 013-23E, hoogte: 242 m

Actueel weer

Dit bericht is 1 uur en het 26 minuten geleden gemaakt, om 20:00 UTC
Wind 5 kt uit het noordwesten
Temperatuur 31°C
Vochtigheid 63%
Druk 1011 hPa
Zicht 10 km of meer
Weinig wolken op 2600 ft, Cumulonimbus.
onweer

METAR: FKKR 022000Z 32005KT 9999 TS FEW026CB 31/23 Q1011 NOSIG

Tijdstip: 22:26 (21:26 UTC)

Verwachting

Dit bericht is 16 uur en het 26 minuten geleden gemaakt, om 05:00 UTC
Verwachting geldig van 02 om 06 UTC tot 02 om 18 UTC
Wind 9 kt uit het westen
Zicht 10 km of meer
geen wolken onder 1500 m en geen cumulonimbus

TAF: FKKR 020500Z 0206/0218 28009KT CAVOK

Waarnemingen en weersverwachtingen van meer dan 4000 vliegvelden (METAR en TAF).

De beschikbare stations zijn de gele en rode punten op de kaart.

Ga met uw muis naar het station om de naam te zien.

Klik dan om waarnemingen en weersverwachtingen te zien.

kaart wijzigen: klik op de groene knoppen met een zwart kruis om in te zoomen, op de groene knop met een streepje om uit te zoomen of op de groene pijlen voor aangrenzende kaarten.


METAR-TAF: